Terminal Aerodrome Forecast
Issued by NWS Brownsville, TX

Home | Current Version | Previous Version | Text Only | Print | Product List | Glossary On
Versions: 1 2 3 4 5 6 7 8 9 10 11 12 13 14 15 16 17 18 19
000
FTUS44 KBRO 291122
TAFBRO
TAF
KBRO 291122Z 2912/3012 16011KT P6SM SKC WS020/19045KT
     FM291500 16016G22KT P6SM SKC
     FM291800 17023G30KT P6SM SKC
     FM300000 15018G24KT P6SM SKC
     FM300200 15011KT P6SM SKC
     FM300900 16011KT P6SM SCT025=

USA.gov is the U.S. government's official web portal to all federal, state and local government web resources and services.